sensor_id;sensor_type;location;lat;lon;timestamp;P1;durP1;ratioP1;P2;durP2;ratioP2
3865;SDS011;1948;53.250;10.412;2022-12-18T00:02:26;19.15;;;12.70;;
3865;SDS011;1948;53.250;10.412;2022-12-18T00:04:53;30.33;;;14.20;;
3865;SDS011;1948;53.250;10.412;2022-12-18T00:07:25;27.02;;;14.00;;
3865;SDS011;1948;53.250;10.412;2022-12-18T00:09:52;22.08;;;13.20;;
3865;SDS011;1948;53.250;10.412;2022-12-18T00:12:19;26.83;;;13.60;;
3865;SDS011;1948;53.250;10.412;2022-12-18T00:14:46;23.20;;;13.60;;
3865;SDS011;1948;53.250;10.412;2022-12-18T00:17:13;27.00;;;13.93;;
3865;SDS011;1948;53.250;10.412;2022-12-18T00:19:40;29.75;;;14.15;;
3865;SDS011;1948;53.250;10.412;2022-12-18T00:22:06;26.48;;;13.40;;
3865;SDS011;1948;53.250;10.412;2022-12-18T00:24:34;28.02;;;14.32;;
3865;SDS011;1948;53.250;10.412;2022-12-18T00:27:03;24.75;;;14.43;;
3865;SDS011;1948;53.250;10.412;2022-12-18T00:29:32;28.20;;;14.15;;
3865;SDS011;1948;53.250;10.412;2022-12-18T00:31:59;27.63;;;13.85;;
3865;SDS011;1948;53.250;10.412;2022-12-18T00:34:28;34.20;;;14.77;;
3865;SDS011;1948;53.250;10.412;2022-12-18T00:36:55;35.35;;;15.95;;
3865;SDS011;1948;53.250;10.412;2022-12-18T00:39:22;32.03;;;14.82;;
3865;SDS011;1948;53.250;10.412;2022-12-18T00:41:51;24.98;;;14.65;;
3865;SDS011;1948;53.250;10.412;2022-12-18T00:44:37;27.45;;;15.13;;
3865;SDS011;1948;53.250;10.412;2022-12-18T00:47:04;27.67;;;15.30;;
3865;SDS011;1948;53.250;10.412;2022-12-18T00:49:31;30.50;;;14.18;;
3865;SDS011;1948;53.250;10.412;2022-12-18T00:52:00;30.00;;;15.15;;
3865;SDS011;1948;53.250;10.412;2022-12-18T00:54:29;31.08;;;15.45;;
3865;SDS011;1948;53.250;10.412;2022-12-18T00:56:58;30.23;;;15.35;;
3865;SDS011;1948;53.250;10.412;2022-12-18T00:59:28;43.45;;;14.82;;
3865;SDS011;1948;53.250;10.412;2022-12-18T01:01:58;26.65;;;13.90;;
3865;SDS011;1948;53.250;10.412;2022-12-18T01:04:28;25.88;;;14.93;;
3865;SDS011;1948;53.250;10.412;2022-12-18T01:06:58;22.90;;;14.23;;
3865;SDS011;1948;53.250;10.412;2022-12-18T01:09:25;25.50;;;13.60;;
3865;SDS011;1948;53.250;10.412;2022-12-18T01:11:52;36.95;;;15.43;;
3865;SDS011;1948;53.250;10.412;2022-12-18T01:14:25;28.27;;;15.02;;
3865;SDS011;1948;53.250;10.412;2022-12-18T01:16:52;26.45;;;13.60;;
3865;SDS011;1948;53.250;10.412;2022-12-18T01:19:22;29.45;;;15.35;;
3865;SDS011;1948;53.250;10.412;2022-12-18T01:21:51;30.38;;;15.88;;
3865;SDS011;1948;53.250;10.412;2022-12-18T01:24:20;21.15;;;13.35;;
3865;SDS011;1948;53.250;10.412;2022-12-18T01:26:47;29.98;;;15.30;;
3865;SDS011;1948;53.250;10.412;2022-12-18T01:29:14;24.17;;;13.63;;
3865;SDS011;1948;53.250;10.412;2022-12-18T01:31:41;31.75;;;15.73;;
3865;SDS011;1948;53.250;10.412;2022-12-18T01:34:10;36.85;;;15.43;;
3865;SDS011;1948;53.250;10.412;2022-12-18T01:36:37;32.72;;;14.45;;
3865;SDS011;1948;53.250;10.412;2022-12-18T01:39:13;32.72;;;14.20;;
3865;SDS011;1948;53.250;10.412;2022-12-18T01:41:43;28.13;;;14.90;;
3865;SDS011;1948;53.250;10.412;2022-12-18T01:50:16;25.75;;;14.23;;
3865;SDS011;1948;53.250;10.412;2022-12-18T01:52:58;36.90;;;14.80;;
3865;SDS011;1948;53.250;10.412;2022-12-18T01:55:40;26.85;;;15.73;;
3865;SDS011;1948;53.250;10.412;2022-12-18T01:58:15;27.10;;;15.45;;
3865;SDS011;1948;53.250;10.412;2022-12-18T02:00:44;28.73;;;14.35;;
3865;SDS011;1948;53.250;10.412;2022-12-18T02:03:11;38.53;;;14.90;;
3865;SDS011;1948;53.250;10.412;2022-12-18T02:08:20;32.20;;;15.82;;
3865;SDS011;1948;53.250;10.412;2022-12-18T02:14:38;26.73;;;16.20;;
3865;SDS011;1948;53.250;10.412;2022-12-18T02:17:52;32.33;;;14.35;;
3865;SDS011;1948;53.250;10.412;2022-12-18T02:28:33;32.60;;;15.77;;
3865;SDS011;1948;53.250;10.412;2022-12-18T02:31:10;29.20;;;15.00;;
3865;SDS011;1948;53.250;10.412;2022-12-18T02:33:52;28.35;;;14.88;;
3865;SDS011;1948;53.250;10.412;2022-12-18T02:36:28;35.10;;;15.73;;
3865;SDS011;1948;53.250;10.412;2022-12-18T02:39:03;27.50;;;15.27;;
3865;SDS011;1948;53.250;10.412;2022-12-18T02:41:34;29.42;;;15.00;;
3865;SDS011;1948;53.250;10.412;2022-12-18T02:44:06;28.52;;;15.15;;
3865;SDS011;1948;53.250;10.412;2022-12-18T02:46:42;31.98;;;15.85;;
3865;SDS011;1948;53.250;10.412;2022-12-18T02:49:36;27.42;;;14.85;;
3865;SDS011;1948;53.250;10.412;2022-12-18T02:55:08;35.28;;;16.17;;
3865;SDS011;1948;53.250;10.412;2022-12-18T02:57:49;38.33;;;15.02;;
3865;SDS011;1948;53.250;10.412;2022-12-18T03:00:44;30.02;;;15.23;;
3865;SDS011;1948;53.250;10.412;2022-12-18T03:03:39;30.65;;;14.50;;
3865;SDS011;1948;53.250;10.412;2022-12-18T03:08:58;28.08;;;15.05;;
3865;SDS011;1948;53.250;10.412;2022-12-18T03:11:30;36.40;;;14.80;;
3865;SDS011;1948;53.250;10.412;2022-12-18T03:14:19;36.25;;;15.55;;
3865;SDS011;1948;53.250;10.412;2022-12-18T03:16:50;31.52;;;15.43;;
3865;SDS011;1948;53.250;10.412;2022-12-18T03:19:28;32.40;;;15.52;;
3865;SDS011;1948;53.250;10.412;2022-12-18T03:22:02;28.05;;;14.77;;
3865;SDS011;1948;53.250;10.412;2022-12-18T03:24:32;35.00;;;16.55;;
3865;SDS011;1948;53.250;10.412;2022-12-18T03:27:01;33.63;;;15.95;;
3865;SDS011;1948;53.250;10.412;2022-12-18T03:29:38;40.20;;;15.70;;
3865;SDS011;1948;53.250;10.412;2022-12-18T03:32:21;33.63;;;16.73;;
3865;SDS011;1948;53.250;10.412;2022-12-18T03:34:59;38.67;;;16.65;;
3865;SDS011;1948;53.250;10.412;2022-12-18T03:37:34;33.60;;;15.85;;
3865;SDS011;1948;53.250;10.412;2022-12-18T03:40:02;35.72;;;16.17;;
3865;SDS011;1948;53.250;10.412;2022-12-18T03:45:29;37.88;;;15.13;;
3865;SDS011;1948;53.250;10.412;2022-12-18T03:48:05;32.63;;;14.88;;
3865;SDS011;1948;53.250;10.412;2022-12-18T03:50:49;30.80;;;15.65;;
3865;SDS011;1948;53.250;10.412;2022-12-18T03:53:52;26.75;;;14.98;;
3865;SDS011;1948;53.250;10.412;2022-12-18T03:56:30;40.60;;;16.70;;
3865;SDS011;1948;53.250;10.412;2022-12-18T03:59:03;31.00;;;14.68;;
3865;SDS011;1948;53.250;10.412;2022-12-18T04:01:33;32.90;;;15.25;;
3865;SDS011;1948;53.250;10.412;2022-12-18T04:04:10;27.95;;;14.77;;
3865;SDS011;1948;53.250;10.412;2022-12-18T04:06:41;36.95;;;15.82;;
3865;SDS011;1948;53.250;10.412;2022-12-18T04:09:10;33.95;;;16.17;;
3865;SDS011;1948;53.250;10.412;2022-12-18T04:11:37;33.45;;;15.35;;
3865;SDS011;1948;53.250;10.412;2022-12-18T04:14:04;34.83;;;16.38;;
3865;SDS011;1948;53.250;10.412;2022-12-18T04:16:35;32.10;;;15.80;;
3865;SDS011;1948;53.250;10.412;2022-12-18T04:19:05;29.20;;;14.55;;
3865;SDS011;1948;53.250;10.412;2022-12-18T04:21:32;30.80;;;14.73;;
3865;SDS011;1948;53.250;10.412;2022-12-18T04:23:59;35.88;;;15.88;;
3865;SDS011;1948;53.250;10.412;2022-12-18T04:26:28;29.52;;;15.75;;
3865;SDS011;1948;53.250;10.412;2022-12-18T04:28:55;29.65;;;15.32;;
3865;SDS011;1948;53.250;10.412;2022-12-18T04:31:25;27.48;;;14.80;;
3865;SDS011;1948;53.250;10.412;2022-12-18T04:33:52;40.28;;;16.25;;
3865;SDS011;1948;53.250;10.412;2022-12-18T04:36:22;32.92;;;16.23;;
3865;SDS011;1948;53.250;10.412;2022-12-18T04:38:55;31.67;;;15.10;;
3865;SDS011;1948;53.250;10.412;2022-12-18T04:41:22;34.47;;;16.25;;
3865;SDS011;1948;53.250;10.412;2022-12-18T04:43:51;33.72;;;16.58;;
3865;SDS011;1948;53.250;10.412;2022-12-18T04:46:18;29.85;;;14.25;;
3865;SDS011;1948;53.250;10.412;2022-12-18T04:48:45;31.20;;;15.65;;
3865;SDS011;1948;53.250;10.412;2022-12-18T04:51:13;33.72;;;14.73;;
3865;SDS011;1948;53.250;10.412;2022-12-18T04:53:48;30.95;;;16.10;;
3865;SDS011;1948;53.250;10.412;2022-12-18T04:56:15;27.75;;;15.23;;
3865;SDS011;1948;53.250;10.412;2022-12-18T04:58:43;30.15;;;16.05;;
3865;SDS011;1948;53.250;10.412;2022-12-18T05:01:13;32.15;;;15.40;;
3865;SDS011;1948;53.250;10.412;2022-12-18T05:03:46;33.00;;;15.40;;
3865;SDS011;1948;53.250;10.412;2022-12-18T05:06:14;25.30;;;13.60;;
3865;SDS011;1948;53.250;10.412;2022-12-18T05:08:41;27.02;;;15.05;;
3865;SDS011;1948;53.250;10.412;2022-12-18T05:11:09;30.83;;;14.75;;
3865;SDS011;1948;53.250;10.412;2022-12-18T05:13:42;31.85;;;15.68;;
3865;SDS011;1948;53.250;10.412;2022-12-18T05:16:14;33.67;;;15.15;;
3865;SDS011;1948;53.250;10.412;2022-12-18T05:18:43;24.80;;;14.65;;
3865;SDS011;1948;53.250;10.412;2022-12-18T05:21:10;28.33;;;14.13;;
3865;SDS011;1948;53.250;10.412;2022-12-18T05:23:37;28.33;;;14.82;;
3865;SDS011;1948;53.250;10.412;2022-12-18T05:26:05;28.50;;;14.05;;
3865;SDS011;1948;53.250;10.412;2022-12-18T05:28:35;27.40;;;14.75;;
3865;SDS011;1948;53.250;10.412;2022-12-18T05:31:03;31.73;;;15.30;;
3865;SDS011;1948;53.250;10.412;2022-12-18T05:33:32;32.78;;;15.80;;
3865;SDS011;1948;53.250;10.412;2022-12-18T05:36:02;33.65;;;14.57;;
3865;SDS011;1948;53.250;10.412;2022-12-18T05:38:33;26.85;;;14.50;;
3865;SDS011;1948;53.250;10.412;2022-12-18T05:41:02;32.15;;;15.60;;
3865;SDS011;1948;53.250;10.412;2022-12-18T05:43:30;32.95;;;15.70;;
3865;SDS011;1948;53.250;10.412;2022-12-18T05:45:57;30.23;;;15.45;;
3865;SDS011;1948;53.250;10.412;2022-12-18T05:48:24;32.40;;;14.88;;
3865;SDS011;1948;53.250;10.412;2022-12-18T05:50:53;30.02;;;14.73;;
3865;SDS011;1948;53.250;10.412;2022-12-18T05:53:22;28.50;;;14.80;;
3865;SDS011;1948;53.250;10.412;2022-12-18T05:55:49;31.30;;;15.23;;
3865;SDS011;1948;53.250;10.412;2022-12-18T05:58:16;28.55;;;15.40;;
3865;SDS011;1948;53.250;10.412;2022-12-18T06:00:46;30.48;;;14.45;;
3865;SDS011;1948;53.250;10.412;2022-12-18T06:03:15;30.50;;;14.82;;
3865;SDS011;1948;53.250;10.412;2022-12-18T06:05:43;30.30;;;15.80;;
3865;SDS011;1948;53.250;10.412;2022-12-18T06:08:11;30.95;;;13.98;;
3865;SDS011;1948;53.250;10.412;2022-12-18T06:10:39;33.22;;;15.15;;
3865;SDS011;1948;53.250;10.412;2022-12-18T06:13:07;30.83;;;14.55;;
3865;SDS011;1948;53.250;10.412;2022-12-18T06:15:37;29.60;;;14.20;;
3865;SDS011;1948;53.250;10.412;2022-12-18T06:18:06;29.88;;;14.35;;
3865;SDS011;1948;53.250;10.412;2022-12-18T06:20:33;29.50;;;13.43;;
3865;SDS011;1948;53.250;10.412;2022-12-18T06:23:02;30.52;;;14.65;;
3865;SDS011;1948;53.250;10.412;2022-12-18T06:25:32;27.08;;;13.77;;
3865;SDS011;1948;53.250;10.412;2022-12-18T06:28:02;36.13;;;15.10;;
3865;SDS011;1948;53.250;10.412;2022-12-18T06:30:30;31.60;;;14.80;;
3865;SDS011;1948;53.250;10.412;2022-12-18T06:32:59;25.15;;;13.80;;
3865;SDS011;1948;53.250;10.412;2022-12-18T06:35:28;25.20;;;14.77;;
3865;SDS011;1948;53.250;10.412;2022-12-18T06:37:55;25.63;;;13.88;;
3865;SDS011;1948;53.250;10.412;2022-12-18T06:40:22;33.33;;;15.30;;
3865;SDS011;1948;53.250;10.412;2022-12-18T06:42:49;31.05;;;14.52;;
3865;SDS011;1948;53.250;10.412;2022-12-18T06:45:21;23.42;;;13.75;;
3865;SDS011;1948;53.250;10.412;2022-12-18T06:47:48;33.97;;;14.90;;
3865;SDS011;1948;53.250;10.412;2022-12-18T06:50:14;32.25;;;14.35;;
3865;SDS011;1948;53.250;10.412;2022-12-18T06:52:44;29.40;;;15.65;;
3865;SDS011;1948;53.250;10.412;2022-12-18T06:55:11;34.15;;;14.13;;
3865;SDS011;1948;53.250;10.412;2022-12-18T06:57:41;37.67;;;14.95;;
3865;SDS011;1948;53.250;10.412;2022-12-18T07:00:08;25.05;;;13.15;;
3865;SDS011;1948;53.250;10.412;2022-12-18T07:02:36;28.70;;;14.57;;
3865;SDS011;1948;53.250;10.412;2022-12-18T07:05:03;31.98;;;13.45;;
3865;SDS011;1948;53.250;10.412;2022-12-18T07:07:36;32.97;;;15.65;;
3865;SDS011;1948;53.250;10.412;2022-12-18T07:10:03;35.00;;;16.25;;
3865;SDS011;1948;53.250;10.412;2022-12-18T07:12:33;33.65;;;14.82;;
3865;SDS011;1948;53.250;10.412;2022-12-18T07:15:04;29.70;;;14.63;;
3865;SDS011;1948;53.250;10.412;2022-12-18T07:17:34;30.20;;;14.55;;
3865;SDS011;1948;53.250;10.412;2022-12-18T07:20:03;25.95;;;14.65;;
3865;SDS011;1948;53.250;10.412;2022-12-18T07:22:30;30.05;;;14.45;;
3865;SDS011;1948;53.250;10.412;2022-12-18T07:24:57;36.50;;;15.68;;
3865;SDS011;1948;53.250;10.412;2022-12-18T07:27:25;31.05;;;15.57;;
3865;SDS011;1948;53.250;10.412;2022-12-18T07:29:57;31.98;;;14.60;;
3865;SDS011;1948;53.250;10.412;2022-12-18T07:32:23;28.17;;;14.30;;
3865;SDS011;1948;53.250;10.412;2022-12-18T07:34:51;30.85;;;14.02;;
3865;SDS011;1948;53.250;10.412;2022-12-18T07:37:18;34.53;;;14.65;;
3865;SDS011;1948;53.250;10.412;2022-12-18T07:39:47;28.95;;;14.73;;
3865;SDS011;1948;53.250;10.412;2022-12-18T07:42:16;31.17;;;15.85;;
3865;SDS011;1948;53.250;10.412;2022-12-18T07:44:58;28.08;;;14.55;;
3865;SDS011;1948;53.250;10.412;2022-12-18T07:47:28;33.63;;;14.10;;
3865;SDS011;1948;53.250;10.412;2022-12-18T07:50:03;30.40;;;15.45;;
3865;SDS011;1948;53.250;10.412;2022-12-18T07:52:33;30.83;;;15.25;;
3865;SDS011;1948;53.250;10.412;2022-12-18T07:55:03;31.60;;;15.50;;
3865;SDS011;1948;53.250;10.412;2022-12-18T07:57:32;33.47;;;14.88;;
3865;SDS011;1948;53.250;10.412;2022-12-18T08:00:21;28.48;;;14.40;;
3865;SDS011;1948;53.250;10.412;2022-12-18T08:02:51;28.08;;;14.20;;
3865;SDS011;1948;53.250;10.412;2022-12-18T08:05:19;28.52;;;14.27;;
3865;SDS011;1948;53.250;10.412;2022-12-18T08:07:47;30.08;;;15.10;;
3865;SDS011;1948;53.250;10.412;2022-12-18T08:10:14;35.13;;;15.60;;
3865;SDS011;1948;53.250;10.412;2022-12-18T08:12:42;32.97;;;15.18;;
3865;SDS011;1948;53.250;10.412;2022-12-18T08:15:09;37.95;;;16.23;;
3865;SDS011;1948;53.250;10.412;2022-12-18T08:17:36;31.92;;;15.88;;
3865;SDS011;1948;53.250;10.412;2022-12-18T08:20:06;27.25;;;14.80;;
3865;SDS011;1948;53.250;10.412;2022-12-18T08:22:34;30.30;;;15.93;;
3865;SDS011;1948;53.250;10.412;2022-12-18T08:25:07;29.50;;;15.55;;
3865;SDS011;1948;53.250;10.412;2022-12-18T08:27:35;30.60;;;15.48;;
3865;SDS011;1948;53.250;10.412;2022-12-18T08:30:03;27.27;;;15.20;;
3865;SDS011;1948;53.250;10.412;2022-12-18T08:32:32;31.67;;;16.40;;
3865;SDS011;1948;53.250;10.412;2022-12-18T08:35:02;31.63;;;16.00;;
3865;SDS011;1948;53.250;10.412;2022-12-18T08:37:31;29.37;;;15.67;;
3865;SDS011;1948;53.250;10.412;2022-12-18T08:40:01;34.40;;;17.10;;
3865;SDS011;1948;53.250;10.412;2022-12-18T08:42:31;30.87;;;16.10;;
3865;SDS011;1948;53.250;10.412;2022-12-18T08:45:21;30.63;;;16.33;;
3865;SDS011;1948;53.250;10.412;2022-12-18T08:47:48;30.80;;;16.60;;
3865;SDS011;1948;53.250;10.412;2022-12-18T08:50:15;34.90;;;16.50;;
3865;SDS011;1948;53.250;10.412;2022-12-18T08:52:42;29.10;;;14.90;;
3865;SDS011;1948;53.250;10.412;2022-12-18T08:55:09;32.83;;;17.00;;
3865;SDS011;1948;53.250;10.412;2022-12-18T08:57:36;30.33;;;17.17;;
3865;SDS011;1948;53.250;10.412;2022-12-18T09:00:03;32.60;;;16.80;;
3865;SDS011;1948;53.250;10.412;2022-12-18T09:02:31;33.43;;;17.20;;
3865;SDS011;1948;53.250;10.412;2022-12-18T09:05:00;30.07;;;16.50;;
3865;SDS011;1948;53.250;10.412;2022-12-18T09:07:30;32.83;;;18.10;;
3865;SDS011;1948;53.250;10.412;2022-12-18T09:09:57;31.43;;;18.50;;
3865;SDS011;1948;53.250;10.412;2022-12-18T09:12:24;36.33;;;18.80;;
3865;SDS011;1948;53.250;10.412;2022-12-18T09:14:51;28.50;;;17.10;;
3865;SDS011;1948;53.250;10.412;2022-12-18T09:17:18;28.90;;;17.17;;
3865;SDS011;1948;53.250;10.412;2022-12-18T09:19:45;32.93;;;18.77;;
3865;SDS011;1948;53.250;10.412;2022-12-18T09:22:16;30.83;;;18.03;;
3865;SDS011;1948;53.250;10.412;2022-12-18T09:24:43;36.10;;;20.87;;
3865;SDS011;1948;53.250;10.412;2022-12-18T09:27:12;31.30;;;18.00;;
3865;SDS011;1948;53.250;10.412;2022-12-18T09:29:39;33.27;;;18.27;;
3865;SDS011;1948;53.250;10.412;2022-12-18T09:32:12;36.43;;;20.17;;
3865;SDS011;1948;53.250;10.412;2022-12-18T09:34:47;32.73;;;19.07;;
3865;SDS011;1948;53.250;10.412;2022-12-18T09:37:14;34.03;;;18.17;;
3865;SDS011;1948;53.250;10.412;2022-12-18T09:39:44;29.60;;;17.00;;
3865;SDS011;1948;53.250;10.412;2022-12-18T09:42:17;36.53;;;18.60;;
3865;SDS011;1948;53.250;10.412;2022-12-18T09:44:49;26.40;;;17.87;;
3865;SDS011;1948;53.250;10.412;2022-12-18T09:49:53;37.33;;;20.53;;
3865;SDS011;1948;53.250;10.412;2022-12-18T09:52:54;35.87;;;20.30;;
3865;SDS011;1948;53.250;10.412;2022-12-18T10:00:36;37.87;;;20.77;;
3865;SDS011;1948;53.250;10.412;2022-12-18T10:03:08;35.53;;;20.40;;
3865;SDS011;1948;53.250;10.412;2022-12-18T10:11:43;39.10;;;22.50;;
3865;SDS011;1948;53.250;10.412;2022-12-18T10:26:24;40.30;;;20.50;;
3865;SDS011;1948;53.250;10.412;2022-12-18T10:28:51;41.03;;;23.60;;
3865;SDS011;1948;53.250;10.412;2022-12-18T10:31:21;38.80;;;22.00;;
3865;SDS011;1948;53.250;10.412;2022-12-18T10:33:50;34.53;;;19.10;;
3865;SDS011;1948;53.250;10.412;2022-12-18T10:36:22;34.20;;;19.07;;
3865;SDS011;1948;53.250;10.412;2022-12-18T10:38:50;31.40;;;18.43;;
3865;SDS011;1948;53.250;10.412;2022-12-18T10:44:10;36.60;;;17.67;;
3865;SDS011;1948;53.250;10.412;2022-12-18T10:46:55;34.27;;;17.37;;
3865;SDS011;1948;53.250;10.412;2022-12-18T10:49:40;35.23;;;17.53;;
3865;SDS011;1948;53.250;10.412;2022-12-18T10:52:17;31.63;;;17.37;;
3865;SDS011;1948;53.250;10.412;2022-12-18T10:54:49;33.87;;;16.70;;
3865;SDS011;1948;53.250;10.412;2022-12-18T10:57:34;37.10;;;17.97;;
3865;SDS011;1948;53.250;10.412;2022-12-18T11:00:26;34.70;;;18.37;;
3865;SDS011;1948;53.250;10.412;2022-12-18T11:02:56;31.03;;;18.57;;
3865;SDS011;1948;53.250;10.412;2022-12-18T11:05:31;34.30;;;17.80;;
3865;SDS011;1948;53.250;10.412;2022-12-18T11:08:03;30.20;;;17.43;;
3865;SDS011;1948;53.250;10.412;2022-12-18T11:10:31;32.73;;;18.10;;
3865;SDS011;1948;53.250;10.412;2022-12-18T11:13:12;31.20;;;17.37;;
3865;SDS011;1948;53.250;10.412;2022-12-18T11:15:48;31.07;;;17.00;;
3865;SDS011;1948;53.250;10.412;2022-12-18T11:21:11;28.10;;;16.63;;
3865;SDS011;1948;53.250;10.412;2022-12-18T11:23:46;32.90;;;17.73;;
3865;SDS011;1948;53.250;10.412;2022-12-18T11:26:18;33.47;;;17.27;;
3865;SDS011;1948;53.250;10.412;2022-12-18T11:28:51;32.53;;;18.07;;
3865;SDS011;1948;53.250;10.412;2022-12-18T11:31:35;39.30;;;19.40;;
3865;SDS011;1948;53.250;10.412;2022-12-18T11:36:54;33.60;;;17.20;;
3865;SDS011;1948;53.250;10.412;2022-12-18T11:39:31;32.00;;;17.37;;
3865;SDS011;1948;53.250;10.412;2022-12-18T11:42:09;36.60;;;17.63;;
3865;SDS011;1948;53.250;10.412;2022-12-18T11:52:52;34.43;;;18.20;;
3865;SDS011;1948;53.250;10.412;2022-12-18T12:00:44;31.40;;;16.67;;
3865;SDS011;1948;53.250;10.412;2022-12-18T12:14:46;43.47;;;16.67;;
3865;SDS011;1948;53.250;10.412;2022-12-18T12:35:40;31.50;;;15.23;;
3865;SDS011;1948;53.250;10.412;2022-12-18T12:38:52;33.37;;;16.27;;
3865;SDS011;1948;53.250;10.412;2022-12-18T12:41:24;34.00;;;16.03;;
3865;SDS011;1948;53.250;10.412;2022-12-18T12:44:28;32.20;;;14.90;;
3865;SDS011;1948;53.250;10.412;2022-12-18T12:47:11;36.10;;;15.53;;
3865;SDS011;1948;53.250;10.412;2022-12-18T12:49:44;36.70;;;15.60;;
3865;SDS011;1948;53.250;10.412;2022-12-18T12:53:05;40.83;;;17.70;;
3865;SDS011;1948;53.250;10.412;2022-12-18T12:55:13;36.37;;;16.20;;
3865;SDS011;1948;53.250;10.412;2022-12-18T12:57:55;36.40;;;16.60;;
3865;SDS011;1948;53.250;10.412;2022-12-18T13:01:08;37.87;;;16.40;;
3865;SDS011;1948;53.250;10.412;2022-12-18T13:10:10;34.67;;;14.83;;
3865;SDS011;1948;53.250;10.412;2022-12-18T13:13:14;35.03;;;16.63;;
3865;SDS011;1948;53.250;10.412;2022-12-18T13:15:50;36.40;;;16.00;;
3865;SDS011;1948;53.250;10.412;2022-12-18T13:18:33;40.43;;;17.43;;
3865;SDS011;1948;53.250;10.412;2022-12-18T13:21:08;34.53;;;16.33;;
3865;SDS011;1948;53.250;10.412;2022-12-18T13:23:56;43.37;;;17.47;;
3865;SDS011;1948;53.250;10.412;2022-12-18T13:28:57;39.47;;;17.90;;
3865;SDS011;1948;53.250;10.412;2022-12-18T13:34:18;35.13;;;16.20;;
3865;SDS011;1948;53.250;10.412;2022-12-18T13:36:54;36.37;;;16.27;;
3865;SDS011;1948;53.250;10.412;2022-12-18T13:40:06;38.40;;;17.50;;
3865;SDS011;1948;53.250;10.412;2022-12-18T13:46:06;39.83;;;17.33;;
3865;SDS011;1948;53.250;10.412;2022-12-18T13:51:54;37.80;;;16.17;;
3865;SDS011;1948;53.250;10.412;2022-12-18T13:57:03;44.40;;;17.97;;
3865;SDS011;1948;53.250;10.412;2022-12-18T13:59:36;35.73;;;16.07;;
3865;SDS011;1948;53.250;10.412;2022-12-18T14:02:11;40.30;;;16.80;;
3865;SDS011;1948;53.250;10.412;2022-12-18T14:04:48;38.23;;;15.70;;
3865;SDS011;1948;53.250;10.412;2022-12-18T14:07:20;46.10;;;18.07;;
3865;SDS011;1948;53.250;10.412;2022-12-18T14:09:54;40.77;;;17.00;;
3865;SDS011;1948;53.250;10.412;2022-12-18T14:12:47;36.40;;;16.37;;
3865;SDS011;1948;53.250;10.412;2022-12-18T14:15:42;44.47;;;17.60;;
3865;SDS011;1948;53.250;10.412;2022-12-18T14:21:33;34.27;;;16.70;;
3865;SDS011;1948;53.250;10.412;2022-12-18T14:24:05;39.47;;;17.00;;
3865;SDS011;1948;53.250;10.412;2022-12-18T14:26:45;46.23;;;18.00;;
3865;SDS011;1948;53.250;10.412;2022-12-18T14:29:20;39.10;;;16.70;;
3865;SDS011;1948;53.250;10.412;2022-12-18T14:32:03;37.77;;;16.40;;
3865;SDS011;1948;53.250;10.412;2022-12-18T14:34:42;43.50;;;17.03;;
3865;SDS011;1948;53.250;10.412;2022-12-18T14:37:13;40.40;;;16.73;;
3865;SDS011;1948;53.250;10.412;2022-12-18T14:42:25;46.73;;;18.07;;
3865;SDS011;1948;53.250;10.412;2022-12-18T14:48:17;36.67;;;15.30;;
3865;SDS011;1948;53.250;10.412;2022-12-18T14:56:22;42.83;;;16.85;;
3865;SDS011;1948;53.250;10.412;2022-12-18T15:01:35;36.97;;;16.00;;
3865;SDS011;1948;53.250;10.412;2022-12-18T15:04:23;41.10;;;16.87;;
3865;SDS011;1948;53.250;10.412;2022-12-18T15:07:04;44.93;;;17.50;;
3865;SDS011;1948;53.250;10.412;2022-12-18T15:09:32;37.85;;;16.55;;
3865;SDS011;1948;53.250;10.412;2022-12-18T15:12:02;35.93;;;15.20;;
3865;SDS011;1948;53.250;10.412;2022-12-18T15:14:49;36.13;;;16.00;;
3865;SDS011;1948;53.250;10.412;2022-12-18T15:17:21;45.05;;;15.38;;
3865;SDS011;1948;53.250;10.412;2022-12-18T15:19:52;38.43;;;15.83;;
3865;SDS011;1948;53.250;10.412;2022-12-18T15:22:32;37.67;;;16.40;;
3865;SDS011;1948;53.250;10.412;2022-12-18T15:25:03;34.65;;;15.15;;
3865;SDS011;1948;53.250;10.412;2022-12-18T15:27:55;34.08;;;14.70;;
3865;SDS011;1948;53.250;10.412;2022-12-18T15:30:22;34.75;;;14.95;;
3865;SDS011;1948;53.250;10.412;2022-12-18T15:33:16;38.10;;;14.63;;
3865;SDS011;1948;53.250;10.412;2022-12-18T15:36:02;35.00;;;14.10;;
3865;SDS011;1948;53.250;10.412;2022-12-18T15:38:36;28.35;;;14.35;;
3865;SDS011;1948;53.250;10.412;2022-12-18T15:41:03;31.55;;;14.10;;
3865;SDS011;1948;53.250;10.412;2022-12-18T15:43:39;31.98;;;14.77;;
3865;SDS011;1948;53.250;10.412;2022-12-18T15:46:11;30.02;;;14.55;;
3865;SDS011;1948;53.250;10.412;2022-12-18T15:48:41;37.85;;;15.18;;
3865;SDS011;1948;53.250;10.412;2022-12-18T15:51:13;28.35;;;14.95;;
3865;SDS011;1948;53.250;10.412;2022-12-18T15:53:44;31.20;;;15.20;;
3865;SDS011;1948;53.250;10.412;2022-12-18T15:56:15;32.38;;;14.32;;
3865;SDS011;1948;53.250;10.412;2022-12-18T15:59:02;35.15;;;16.35;;
3865;SDS011;1948;53.250;10.412;2022-12-18T16:01:38;31.27;;;14.90;;
3865;SDS011;1948;53.250;10.412;2022-12-18T16:04:09;31.83;;;15.02;;
3865;SDS011;1948;53.250;10.412;2022-12-18T16:06:40;30.05;;;14.57;;
3865;SDS011;1948;53.250;10.412;2022-12-18T16:09:33;27.83;;;14.77;;
3865;SDS011;1948;53.250;10.412;2022-12-18T16:12:02;33.08;;;15.05;;
3865;SDS011;1948;53.250;10.412;2022-12-18T16:14:38;35.20;;;15.60;;
3865;SDS011;1948;53.250;10.412;2022-12-18T16:17:09;33.10;;;15.75;;
3865;SDS011;1948;53.250;10.412;2022-12-18T16:19:38;34.45;;;14.80;;
3865;SDS011;1948;53.250;10.412;2022-12-18T16:22:22;31.02;;;15.38;;
3865;SDS011;1948;53.250;10.412;2022-12-18T16:24:53;30.65;;;14.90;;
3865;SDS011;1948;53.250;10.412;2022-12-18T16:27:23;31.58;;;14.63;;
3865;SDS011;1948;53.250;10.412;2022-12-18T16:29:54;24.63;;;13.82;;
3865;SDS011;1948;53.250;10.412;2022-12-18T16:32:22;31.73;;;14.60;;
3865;SDS011;1948;53.250;10.412;2022-12-18T16:34:50;29.13;;;14.70;;
3865;SDS011;1948;53.250;10.412;2022-12-18T16:37:17;24.35;;;13.75;;
3865;SDS011;1948;53.250;10.412;2022-12-18T16:39:45;22.63;;;12.88;;
3865;SDS011;1948;53.250;10.412;2022-12-18T16:42:16;30.75;;;13.95;;
3865;SDS011;1948;53.250;10.412;2022-12-18T16:44:47;33.03;;;14.55;;
3865;SDS011;1948;53.250;10.412;2022-12-18T16:47:16;27.80;;;13.65;;
3865;SDS011;1948;53.250;10.412;2022-12-18T16:49:46;26.50;;;13.57;;
3865;SDS011;1948;53.250;10.412;2022-12-18T16:52:17;21.60;;;12.32;;
3865;SDS011;1948;53.250;10.412;2022-12-18T16:54:45;24.87;;;13.80;;
3865;SDS011;1948;53.250;10.412;2022-12-18T16:57:13;24.80;;;13.38;;
3865;SDS011;1948;53.250;10.412;2022-12-18T16:59:50;21.35;;;12.00;;
3865;SDS011;1948;53.250;10.412;2022-12-18T17:04:56;30.13;;;13.05;;
3865;SDS011;1948;53.250;10.412;2022-12-18T17:07:27;25.98;;;13.07;;
3865;SDS011;1948;53.250;10.412;2022-12-18T17:09:54;21.80;;;11.82;;
3865;SDS011;1948;53.250;10.412;2022-12-18T17:12:22;23.92;;;13.25;;
3865;SDS011;1948;53.250;10.412;2022-12-18T17:14:55;25.85;;;12.70;;
3865;SDS011;1948;53.250;10.412;2022-12-18T17:17:22;23.48;;;12.60;;
3865;SDS011;1948;53.250;10.412;2022-12-18T17:19:50;22.15;;;11.80;;
3865;SDS011;1948;53.250;10.412;2022-12-18T17:22:18;21.15;;;11.65;;
3865;SDS011;1948;53.250;10.412;2022-12-18T17:24:47;21.20;;;11.07;;
3865;SDS011;1948;53.250;10.412;2022-12-18T17:27:14;24.80;;;12.43;;
3865;SDS011;1948;53.250;10.412;2022-12-18T17:29:42;23.13;;;13.02;;
3865;SDS011;1948;53.250;10.412;2022-12-18T17:32:13;22.55;;;11.35;;
3865;SDS011;1948;53.250;10.412;2022-12-18T17:34:43;25.05;;;12.00;;